sensor_id;sensor_type;location;lat;lon;timestamp;P1;durP1;ratioP1;P2;durP2;ratioP2
79128;SDS011;68529;43.286;23.360;2023-06-14T00:00:36;11.48;;;4.28;;
79128;SDS011;68529;43.286;23.360;2023-06-14T00:03:05;9.23;;;5.13;;
79128;SDS011;68529;43.286;23.360;2023-06-14T00:05:33;11.38;;;5.15;;
79128;SDS011;68529;43.286;23.360;2023-06-14T00:08:03;7.82;;;4.38;;
79128;SDS011;68529;43.286;23.360;2023-06-14T00:10:32;6.68;;;4.28;;
79128;SDS011;68529;43.286;23.360;2023-06-14T00:13:00;10.75;;;4.20;;
79128;SDS011;68529;43.286;23.360;2023-06-14T00:15:30;5.00;;;4.40;;
79128;SDS011;68529;43.286;23.360;2023-06-14T00:17:56;8.60;;;4.43;;
79128;SDS011;68529;43.286;23.360;2023-06-14T00:20:25;10.55;;;4.35;;
79128;SDS011;68529;43.286;23.360;2023-06-14T00:22:56;11.63;;;4.63;;
79128;SDS011;68529;43.286;23.360;2023-06-14T00:25:24;7.88;;;4.35;;
79128;SDS011;68529;43.286;23.360;2023-06-14T00:27:50;9.27;;;4.23;;
79128;SDS011;68529;43.286;23.360;2023-06-14T00:30:16;8.40;;;5.05;;
79128;SDS011;68529;43.286;23.360;2023-06-14T00:32:43;8.80;;;4.85;;
79128;SDS011;68529;43.286;23.360;2023-06-14T00:35:09;7.57;;;4.65;;
79128;SDS011;68529;43.286;23.360;2023-06-14T00:37:35;9.35;;;4.45;;
79128;SDS011;68529;43.286;23.360;2023-06-14T00:40:00;15.30;;;4.22;;
79128;SDS011;68529;43.286;23.360;2023-06-14T00:42:26;9.67;;;4.83;;
79128;SDS011;68529;43.286;23.360;2023-06-14T00:44:52;8.37;;;4.23;;
79128;SDS011;68529;43.286;23.360;2023-06-14T00:47:18;5.38;;;3.90;;
79128;SDS011;68529;43.286;23.360;2023-06-14T00:49:47;9.02;;;4.78;;
79128;SDS011;68529;43.286;23.360;2023-06-14T00:52:15;5.60;;;4.30;;
79128;SDS011;68529;43.286;23.360;2023-06-14T00:54:41;7.85;;;4.13;;
79128;SDS011;68529;43.286;23.360;2023-06-14T00:57:07;4.90;;;4.23;;
79128;SDS011;68529;43.286;23.360;2023-06-14T00:59:34;10.55;;;4.63;;
79128;SDS011;68529;43.286;23.360;2023-06-14T01:02:05;4.50;;;4.03;;
79128;SDS011;68529;43.286;23.360;2023-06-14T01:04:30;7.22;;;4.80;;
79128;SDS011;68529;43.286;23.360;2023-06-14T01:07:02;6.55;;;4.10;;
79128;SDS011;68529;43.286;23.360;2023-06-14T01:09:58;8.98;;;4.50;;
79128;SDS011;68529;43.286;23.360;2023-06-14T01:12:39;9.73;;;4.30;;
79128;SDS011;68529;43.286;23.360;2023-06-14T01:15:28;6.82;;;3.92;;
79128;SDS011;68529;43.286;23.360;2023-06-14T01:17:56;7.85;;;4.78;;
79128;SDS011;68529;43.286;23.360;2023-06-14T01:20:28;7.82;;;4.88;;
79128;SDS011;68529;43.286;23.360;2023-06-14T01:22:55;9.75;;;4.97;;
79128;SDS011;68529;43.286;23.360;2023-06-14T01:25:21;5.93;;;4.28;;
79128;SDS011;68529;43.286;23.360;2023-06-14T01:27:48;7.88;;;3.97;;
79128;SDS011;68529;43.286;23.360;2023-06-14T01:30:16;9.15;;;4.13;;
79128;SDS011;68529;43.286;23.360;2023-06-14T01:32:43;5.38;;;3.97;;
79128;SDS011;68529;43.286;23.360;2023-06-14T01:35:09;4.95;;;3.92;;
79128;SDS011;68529;43.286;23.360;2023-06-14T01:37:35;9.00;;;4.30;;
79128;SDS011;68529;43.286;23.360;2023-06-14T01:40:02;8.25;;;4.15;;
79128;SDS011;68529;43.286;23.360;2023-06-14T01:42:31;9.57;;;4.57;;
79128;SDS011;68529;43.286;23.360;2023-06-14T01:44:59;6.50;;;4.68;;
79128;SDS011;68529;43.286;23.360;2023-06-14T01:47:26;7.23;;;4.27;;
79128;SDS011;68529;43.286;23.360;2023-06-14T01:49:52;7.83;;;4.20;;
79128;SDS011;68529;43.286;23.360;2023-06-14T01:52:17;5.30;;;4.20;;
79128;SDS011;68529;43.286;23.360;2023-06-14T01:54:44;6.77;;;4.63;;
79128;SDS011;68529;43.286;23.360;2023-06-14T01:57:11;6.82;;;4.00;;
79128;SDS011;68529;43.286;23.360;2023-06-14T01:59:36;5.47;;;4.00;;
79128;SDS011;68529;43.286;23.360;2023-06-14T02:02:02;9.07;;;4.10;;
79128;SDS011;68529;43.286;23.360;2023-06-14T02:04:28;6.13;;;4.20;;
79128;SDS011;68529;43.286;23.360;2023-06-14T02:06:53;4.03;;;3.63;;
79128;SDS011;68529;43.286;23.360;2023-06-14T02:09:19;4.53;;;4.10;;
79128;SDS011;68529;43.286;23.360;2023-06-14T02:11:44;8.37;;;3.73;;
79128;SDS011;68529;43.286;23.360;2023-06-14T02:14:10;7.70;;;3.72;;
79128;SDS011;68529;43.286;23.360;2023-06-14T02:16:36;6.65;;;3.92;;
79128;SDS011;68529;43.286;23.360;2023-06-14T02:19:03;10.00;;;4.43;;
79128;SDS011;68529;43.286;23.360;2023-06-14T02:21:29;9.23;;;4.13;;
79128;SDS011;68529;43.286;23.360;2023-06-14T02:23:55;4.60;;;4.10;;
79128;SDS011;68529;43.286;23.360;2023-06-14T02:26:20;7.35;;;4.22;;
79128;SDS011;68529;43.286;23.360;2023-06-14T02:28:47;4.83;;;4.00;;
79128;SDS011;68529;43.286;23.360;2023-06-14T02:31:13;6.97;;;4.13;;
79128;SDS011;68529;43.286;23.360;2023-06-14T02:33:38;6.78;;;4.50;;
79128;SDS011;68529;43.286;23.360;2023-06-14T02:36:04;6.80;;;4.47;;
79128;SDS011;68529;43.286;23.360;2023-06-14T02:38:30;9.30;;;4.50;;
79128;SDS011;68529;43.286;23.360;2023-06-14T02:40:56;8.05;;;4.38;;
79128;SDS011;68529;43.286;23.360;2023-06-14T02:43:22;9.23;;;4.53;;
79128;SDS011;68529;43.286;23.360;2023-06-14T02:45:47;5.70;;;4.40;;
79128;SDS011;68529;43.286;23.360;2023-06-14T02:48:13;8.13;;;5.10;;
79128;SDS011;68529;43.286;23.360;2023-06-14T02:50:38;11.30;;;5.07;;
79128;SDS011;68529;43.286;23.360;2023-06-14T02:53:03;8.90;;;4.80;;
79128;SDS011;68529;43.286;23.360;2023-06-14T02:55:31;9.10;;;4.53;;
79128;SDS011;68529;43.286;23.360;2023-06-14T02:57:56;7.78;;;5.05;;
79128;SDS011;68529;43.286;23.360;2023-06-14T03:00:22;6.60;;;4.60;;
79128;SDS011;68529;43.286;23.360;2023-06-14T03:02:49;7.90;;;4.37;;
79128;SDS011;68529;43.286;23.360;2023-06-14T03:05:16;9.27;;;5.20;;
79128;SDS011;68529;43.286;23.360;2023-06-14T03:07:45;5.63;;;4.35;;
79128;SDS011;68529;43.286;23.360;2023-06-14T03:10:11;6.53;;;4.38;;
79128;SDS011;68529;43.286;23.360;2023-06-14T03:12:39;5.37;;;4.83;;
79128;SDS011;68529;43.286;23.360;2023-06-14T03:15:05;11.25;;;5.07;;
79128;SDS011;68529;43.286;23.360;2023-06-14T03:17:32;6.80;;;4.80;;
79128;SDS011;68529;43.286;23.360;2023-06-14T03:19:59;7.35;;;4.63;;
79128;SDS011;68529;43.286;23.360;2023-06-14T03:22:25;6.57;;;4.40;;
79128;SDS011;68529;43.286;23.360;2023-06-14T03:24:51;10.43;;;4.43;;
79128;SDS011;68529;43.286;23.360;2023-06-14T03:27:17;10.13;;;4.40;;
79128;SDS011;68529;43.286;23.360;2023-06-14T03:29:43;5.80;;;4.60;;
79128;SDS011;68529;43.286;23.360;2023-06-14T03:32:09;5.23;;;4.73;;
79128;SDS011;68529;43.286;23.360;2023-06-14T03:34:34;8.77;;;4.82;;
79128;SDS011;68529;43.286;23.360;2023-06-14T03:37:00;7.00;;;4.53;;
79128;SDS011;68529;43.286;23.360;2023-06-14T03:39:25;5.70;;;4.60;;
79128;SDS011;68529;43.286;23.360;2023-06-14T03:41:51;8.23;;;4.80;;
79128;SDS011;68529;43.286;23.360;2023-06-14T03:44:17;6.53;;;4.38;;
79128;SDS011;68529;43.286;23.360;2023-06-14T03:46:43;6.03;;;4.50;;
79128;SDS011;68529;43.286;23.360;2023-06-14T03:49:10;8.98;;;4.78;;
79128;SDS011;68529;43.286;23.360;2023-06-14T03:51:36;5.03;;;4.53;;
79128;SDS011;68529;43.286;23.360;2023-06-14T03:54:02;5.47;;;4.70;;
79128;SDS011;68529;43.286;23.360;2023-06-14T03:56:27;5.73;;;4.70;;
79128;SDS011;68529;43.286;23.360;2023-06-14T03:58:52;6.28;;;5.38;;
79128;SDS011;68529;43.286;23.360;2023-06-14T04:01:18;6.60;;;5.30;;
79128;SDS011;68529;43.286;23.360;2023-06-14T04:03:43;6.22;;;5.20;;
79128;SDS011;68529;43.286;23.360;2023-06-14T04:06:09;8.02;;;5.65;;
79128;SDS011;68529;43.286;23.360;2023-06-14T04:08:34;6.18;;;5.53;;
79128;SDS011;68529;43.286;23.360;2023-06-14T04:11:00;6.82;;;5.20;;
79128;SDS011;68529;43.286;23.360;2023-06-14T04:13:26;5.90;;;5.30;;
79128;SDS011;68529;43.286;23.360;2023-06-14T04:15:51;4.80;;;4.35;;
79128;SDS011;68529;43.286;23.360;2023-06-14T04:18:17;6.78;;;5.15;;
79128;SDS011;68529;43.286;23.360;2023-06-14T04:20:43;6.28;;;5.22;;
79128;SDS011;68529;43.286;23.360;2023-06-14T04:23:15;5.18;;;4.75;;
79128;SDS011;68529;43.286;23.360;2023-06-14T04:25:46;5.57;;;5.07;;
79128;SDS011;68529;43.286;23.360;2023-06-14T04:28:12;5.57;;;5.07;;
79128;SDS011;68529;43.286;23.360;2023-06-14T04:30:40;5.87;;;5.27;;
79128;SDS011;68529;43.286;23.360;2023-06-14T04:33:06;6.18;;;5.68;;
79128;SDS011;68529;43.286;23.360;2023-06-14T04:35:33;5.47;;;4.95;;
79128;SDS011;68529;43.286;23.360;2023-06-14T04:38:00;7.43;;;6.75;;
79128;SDS011;68529;43.286;23.360;2023-06-14T04:40:30;12.63;;;10.00;;
79128;SDS011;68529;43.286;23.360;2023-06-14T04:42:56;5.80;;;5.30;;
79128;SDS011;68529;43.286;23.360;2023-06-14T04:45:22;6.43;;;5.87;;
79128;SDS011;68529;43.286;23.360;2023-06-14T04:47:48;6.90;;;6.20;;
79128;SDS011;68529;43.286;23.360;2023-06-14T04:50:15;8.57;;;7.30;;
79128;SDS011;68529;43.286;23.360;2023-06-14T04:52:41;6.55;;;5.95;;
79128;SDS011;68529;43.286;23.360;2023-06-14T04:55:07;6.28;;;5.63;;
79128;SDS011;68529;43.286;23.360;2023-06-14T04:57:33;5.50;;;5.00;;
79128;SDS011;68529;43.286;23.360;2023-06-14T05:00:00;6.57;;;4.60;;
79128;SDS011;68529;43.286;23.360;2023-06-14T05:02:26;5.18;;;4.70;;
79128;SDS011;68529;43.286;23.360;2023-06-14T05:04:52;4.90;;;4.50;;
79128;SDS011;68529;43.286;23.360;2023-06-14T05:07:18;4.93;;;4.53;;
79128;SDS011;68529;43.286;23.360;2023-06-14T05:09:44;7.90;;;4.70;;
79128;SDS011;68529;43.286;23.360;2023-06-14T05:12:10;4.88;;;4.38;;
79128;SDS011;68529;43.286;23.360;2023-06-14T05:14:36;5.55;;;4.97;;
79128;SDS011;68529;43.286;23.360;2023-06-14T05:17:01;4.95;;;4.38;;
79128;SDS011;68529;43.286;23.360;2023-06-14T05:19:27;4.80;;;4.20;;
79128;SDS011;68529;43.286;23.360;2023-06-14T05:21:53;5.03;;;4.63;;
79128;SDS011;68529;43.286;23.360;2023-06-14T05:24:19;4.15;;;3.65;;
79128;SDS011;68529;43.286;23.360;2023-06-14T05:26:45;4.00;;;3.70;;
79128;SDS011;68529;43.286;23.360;2023-06-14T05:29:10;5.68;;;4.45;;
79128;SDS011;68529;43.286;23.360;2023-06-14T05:31:36;4.55;;;4.15;;
79128;SDS011;68529;43.286;23.360;2023-06-14T05:34:02;6.10;;;4.72;;
79128;SDS011;68529;43.286;23.360;2023-06-14T05:36:28;5.60;;;4.45;;
79128;SDS011;68529;43.286;23.360;2023-06-14T05:38:53;6.45;;;4.88;;
79128;SDS011;68529;43.286;23.360;2023-06-14T05:41:28;8.05;;;5.15;;
79128;SDS011;68529;43.286;23.360;2023-06-14T05:43:54;6.20;;;5.22;;
79128;SDS011;68529;43.286;23.360;2023-06-14T05:46:21;5.55;;;5.05;;
79128;SDS011;68529;43.286;23.360;2023-06-14T05:48:49;8.80;;;5.38;;
79128;SDS011;68529;43.286;23.360;2023-06-14T05:51:15;4.88;;;4.30;;
79128;SDS011;68529;43.286;23.360;2023-06-14T05:53:43;9.75;;;4.97;;
79128;SDS011;68529;43.286;23.360;2023-06-14T05:56:09;5.70;;;4.30;;
79128;SDS011;68529;43.286;23.360;2023-06-14T05:58:34;6.15;;;4.10;;
79128;SDS011;68529;43.286;23.360;2023-06-14T06:01:00;4.55;;;3.50;;
79128;SDS011;68529;43.286;23.360;2023-06-14T06:03:26;4.47;;;4.13;;
79128;SDS011;68529;43.286;23.360;2023-06-14T06:05:54;4.35;;;3.70;;
79128;SDS011;68529;43.286;23.360;2023-06-14T06:08:19;5.47;;;3.67;;
79128;SDS011;68529;43.286;23.360;2023-06-14T06:10:46;4.15;;;3.70;;
79128;SDS011;68529;43.286;23.360;2023-06-14T06:13:11;4.20;;;3.90;;
79128;SDS011;68529;43.286;23.360;2023-06-14T06:15:36;4.40;;;3.92;;
79128;SDS011;68529;43.286;23.360;2023-06-14T06:18:02;3.95;;;3.65;;
79128;SDS011;68529;43.286;23.360;2023-06-14T06:20:29;4.18;;;3.67;;
79128;SDS011;68529;43.286;23.360;2023-06-14T06:22:59;5.30;;;3.83;;
79128;SDS011;68529;43.286;23.360;2023-06-14T06:25:25;4.25;;;3.80;;
79128;SDS011;68529;43.286;23.360;2023-06-14T06:27:52;4.60;;;3.63;;
79128;SDS011;68529;43.286;23.360;2023-06-14T06:30:19;5.65;;;3.83;;
79128;SDS011;68529;43.286;23.360;2023-06-14T06:32:44;4.03;;;3.63;;
79128;SDS011;68529;43.286;23.360;2023-06-14T06:35:11;4.88;;;3.60;;
79128;SDS011;68529;43.286;23.360;2023-06-14T06:37:37;5.53;;;3.30;;
79128;SDS011;68529;43.286;23.360;2023-06-14T06:40:04;4.00;;;3.70;;
79128;SDS011;68529;43.286;23.360;2023-06-14T06:42:31;4.20;;;3.47;;
79128;SDS011;68529;43.286;23.360;2023-06-14T06:45:00;3.00;;;2.80;;
79128;SDS011;68529;43.286;23.360;2023-06-14T06:47:25;3.35;;;2.70;;
79128;SDS011;68529;43.286;23.360;2023-06-14T06:49:51;4.03;;;3.05;;
79128;SDS011;68529;43.286;23.360;2023-06-14T06:52:16;3.38;;;3.08;;
79128;SDS011;68529;43.286;23.360;2023-06-14T06:54:42;2.72;;;2.53;;
79128;SDS011;68529;43.286;23.360;2023-06-14T06:57:07;3.30;;;3.00;;
79128;SDS011;68529;43.286;23.360;2023-06-14T06:59:33;4.28;;;3.08;;
79128;SDS011;68529;43.286;23.360;2023-06-14T07:01:59;3.50;;;3.17;;
79128;SDS011;68529;43.286;23.360;2023-06-14T07:04:24;2.63;;;2.42;;
79128;SDS011;68529;43.286;23.360;2023-06-14T07:06:49;3.03;;;2.60;;
79128;SDS011;68529;43.286;23.360;2023-06-14T07:09:15;2.58;;;2.45;;
79128;SDS011;68529;43.286;23.360;2023-06-14T07:11:44;3.80;;;3.40;;
79128;SDS011;68529;43.286;23.360;2023-06-14T07:14:09;4.05;;;3.10;;
79128;SDS011;68529;43.286;23.360;2023-06-14T07:16:35;3.33;;;3.00;;
79128;SDS011;68529;43.286;23.360;2023-06-14T07:19:03;6.28;;;3.72;;
79128;SDS011;68529;43.286;23.360;2023-06-14T07:21:29;3.72;;;3.15;;
79128;SDS011;68529;43.286;23.360;2023-06-14T07:23:55;3.05;;;2.85;;
79128;SDS011;68529;43.286;23.360;2023-06-14T07:26:21;3.83;;;3.53;;
79128;SDS011;68529;43.286;23.360;2023-06-14T07:28:47;3.53;;;3.17;;
79128;SDS011;68529;43.286;23.360;2023-06-14T07:31:14;3.20;;;2.95;;
79128;SDS011;68529;43.286;23.360;2023-06-14T07:33:40;4.97;;;3.25;;
79128;SDS011;68529;43.286;23.360;2023-06-14T07:36:06;3.70;;;3.28;;
79128;SDS011;68529;43.286;23.360;2023-06-14T07:38:32;3.15;;;2.72;;
79128;SDS011;68529;43.286;23.360;2023-06-14T07:40:57;3.13;;;2.90;;
79128;SDS011;68529;43.286;23.360;2023-06-14T07:43:23;4.40;;;3.70;;
79128;SDS011;68529;43.286;23.360;2023-06-14T07:45:48;3.50;;;3.20;;
79128;SDS011;68529;43.286;23.360;2023-06-14T07:48:14;3.42;;;3.13;;
79128;SDS011;68529;43.286;23.360;2023-06-14T07:50:39;4.75;;;4.35;;
79128;SDS011;68529;43.286;23.360;2023-06-14T07:53:07;4.30;;;3.47;;
79128;SDS011;68529;43.286;23.360;2023-06-14T07:55:32;5.90;;;5.30;;
79128;SDS011;68529;43.286;23.360;2023-06-14T07:58:01;4.43;;;3.70;;
79128;SDS011;68529;43.286;23.360;2023-06-14T08:00:27;4.28;;;3.60;;
79128;SDS011;68529;43.286;23.360;2023-06-14T08:02:53;5.20;;;3.55;;
79128;SDS011;68529;43.286;23.360;2023-06-14T08:05:23;4.30;;;3.50;;
79128;SDS011;68529;43.286;23.360;2023-06-14T08:07:49;3.90;;;3.60;;
79128;SDS011;68529;43.286;23.360;2023-06-14T08:10:14;3.92;;;3.55;;
79128;SDS011;68529;43.286;23.360;2023-06-14T08:12:40;4.20;;;3.80;;
79128;SDS011;68529;43.286;23.360;2023-06-14T08:15:05;5.72;;;3.97;;
79128;SDS011;68529;43.286;23.360;2023-06-14T08:17:31;4.40;;;4.05;;
79128;SDS011;68529;43.286;23.360;2023-06-14T08:19:56;3.63;;;3.35;;
79128;SDS011;68529;43.286;23.360;2023-06-14T08:22:22;5.38;;;4.13;;
79128;SDS011;68529;43.286;23.360;2023-06-14T08:24:49;4.45;;;4.13;;
79128;SDS011;68529;43.286;23.360;2023-06-14T08:27:15;4.72;;;4.30;;
79128;SDS011;68529;43.286;23.360;2023-06-14T08:29:41;5.13;;;4.50;;
79128;SDS011;68529;43.286;23.360;2023-06-14T08:32:06;4.85;;;4.10;;
79128;SDS011;68529;43.286;23.360;2023-06-14T08:34:32;4.85;;;4.15;;
79128;SDS011;68529;43.286;23.360;2023-06-14T08:36:57;4.93;;;4.00;;
79128;SDS011;68529;43.286;23.360;2023-06-14T08:39:23;5.72;;;4.53;;
79128;SDS011;68529;43.286;23.360;2023-06-14T08:41:48;5.03;;;4.22;;
79128;SDS011;68529;43.286;23.360;2023-06-14T08:44:16;4.30;;;4.00;;
79128;SDS011;68529;43.286;23.360;2023-06-14T08:46:42;7.03;;;4.43;;
79128;SDS011;68529;43.286;23.360;2023-06-14T08:49:08;4.88;;;4.38;;
79128;SDS011;68529;43.286;23.360;2023-06-14T08:51:36;4.50;;;4.10;;
79128;SDS011;68529;43.286;23.360;2023-06-14T08:54:02;4.32;;;4.03;;
79128;SDS011;68529;43.286;23.360;2023-06-14T08:56:29;5.80;;;4.50;;
79128;SDS011;68529;43.286;23.360;2023-06-14T08:58:56;4.70;;;4.30;;
79128;SDS011;68529;43.286;23.360;2023-06-14T09:01:25;4.95;;;4.22;;
79128;SDS011;68529;43.286;23.360;2023-06-14T09:03:51;4.57;;;4.18;;
79128;SDS011;68529;43.286;23.360;2023-06-14T09:06:20;4.90;;;4.50;;
79128;SDS011;68529;43.286;23.360;2023-06-14T09:08:48;6.53;;;4.50;;
79128;SDS011;68529;43.286;23.360;2023-06-14T09:11:14;4.50;;;4.10;;
79128;SDS011;68529;43.286;23.360;2023-06-14T09:13:41;4.72;;;4.20;;
79128;SDS011;68529;43.286;23.360;2023-06-14T09:16:08;4.90;;;4.25;;
79128;SDS011;68529;43.286;23.360;2023-06-14T09:18:54;4.82;;;4.32;;
79128;SDS011;68529;43.286;23.360;2023-06-14T09:21:19;4.57;;;4.18;;
79128;SDS011;68529;43.286;23.360;2023-06-14T09:23:46;4.70;;;4.30;;
79128;SDS011;68529;43.286;23.360;2023-06-14T09:26:14;5.97;;;3.85;;
79128;SDS011;68529;43.286;23.360;2023-06-14T09:28:41;4.82;;;4.32;;
79128;SDS011;68529;43.286;23.360;2023-06-14T09:31:14;6.15;;;4.32;;
79128;SDS011;68529;43.286;23.360;2023-06-14T09:33:43;5.85;;;4.63;;
79128;SDS011;68529;43.286;23.360;2023-06-14T09:36:14;4.85;;;4.35;;
79128;SDS011;68529;43.286;23.360;2023-06-14T09:39:01;4.20;;;3.80;;
79128;SDS011;68529;43.286;23.360;2023-06-14T09:44:00;4.40;;;4.00;;
79128;SDS011;68529;43.286;23.360;2023-06-14T09:46:27;4.65;;;4.13;;
79128;SDS011;68529;43.286;23.360;2023-06-14T09:48:54;4.45;;;4.03;;
79128;SDS011;68529;43.286;23.360;2023-06-14T09:51:22;6.38;;;4.55;;
79128;SDS011;68529;43.286;23.360;2023-06-14T09:53:48;5.38;;;3.90;;
79128;SDS011;68529;43.286;23.360;2023-06-14T09:56:59;4.60;;;4.15;;
79128;SDS011;68529;43.286;23.360;2023-06-14T09:59:06;4.88;;;4.05;;
79128;SDS011;68529;43.286;23.360;2023-06-14T10:01:35;5.15;;;4.75;;
79128;SDS011;68529;43.286;23.360;2023-06-14T10:04:05;4.63;;;4.22;;
79128;SDS011;68529;43.286;23.360;2023-06-14T10:06:32;4.63;;;4.20;;
79128;SDS011;68529;43.286;23.360;2023-06-14T10:09:02;7.07;;;4.25;;
79128;SDS011;68529;43.286;23.360;2023-06-14T10:11:30;5.15;;;4.65;;
79128;SDS011;68529;43.286;23.360;2023-06-14T10:13:56;5.40;;;4.90;;
79128;SDS011;68529;43.286;23.360;2023-06-14T10:16:24;5.50;;;4.80;;
79128;SDS011;68529;43.286;23.360;2023-06-14T10:19:06;4.57;;;4.18;;
79128;SDS011;68529;43.286;23.360;2023-06-14T10:24:24;7.97;;;4.45;;
79128;SDS011;68529;43.286;23.360;2023-06-14T10:26:56;4.60;;;4.20;;
79128;SDS011;68529;43.286;23.360;2023-06-14T10:29:23;6.10;;;4.75;;
79128;SDS011;68529;43.286;23.360;2023-06-14T10:31:49;5.00;;;4.30;;
79128;SDS011;68529;43.286;23.360;2023-06-14T10:34:26;4.78;;;4.38;;
79128;SDS011;68529;43.286;23.360;2023-06-14T10:37:06;4.55;;;4.18;;
79128;SDS011;68529;43.286;23.360;2023-06-14T10:39:42;5.50;;;4.60;;
79128;SDS011;68529;43.286;23.360;2023-06-14T10:42:12;5.00;;;4.60;;
79128;SDS011;68529;43.286;23.360;2023-06-14T10:47:06;6.18;;;5.57;;
79128;SDS011;68529;43.286;23.360;2023-06-14T10:50:06;5.22;;;4.75;;
79128;SDS011;68529;43.286;23.360;2023-06-14T10:52:27;5.30;;;4.80;;
79128;SDS011;68529;43.286;23.360;2023-06-14T10:55:13;4.93;;;4.53;;
79128;SDS011;68529;43.286;23.360;2023-06-14T10:57:40;4.38;;;4.05;;
79128;SDS011;68529;43.286;23.360;2023-06-14T11:00:07;6.97;;;5.22;;
79128;SDS011;68529;43.286;23.360;2023-06-14T11:08:27;5.18;;;4.65;;
79128;SDS011;68529;43.286;23.360;2023-06-14T11:10:59;5.80;;;5.30;;
79128;SDS011;68529;43.286;23.360;2023-06-14T11:13:27;6.00;;;5.15;;
79128;SDS011;68529;43.286;23.360;2023-06-14T11:15:53;6.07;;;5.10;;
79128;SDS011;68529;43.286;23.360;2023-06-14T11:18:21;5.18;;;4.68;;
79128;SDS011;68529;43.286;23.360;2023-06-14T11:20:49;5.70;;;4.93;;
79128;SDS011;68529;43.286;23.360;2023-06-14T11:23:15;5.85;;;5.35;;
79128;SDS011;68529;43.286;23.360;2023-06-14T11:25:41;5.18;;;4.65;;
79128;SDS011;68529;43.286;23.360;2023-06-14T11:28:06;4.78;;;4.38;;
79128;SDS011;68529;43.286;23.360;2023-06-14T11:30:32;5.50;;;5.00;;
79128;SDS011;68529;43.286;23.360;2023-06-14T11:32:57;7.25;;;4.90;;
79128;SDS011;68529;43.286;23.360;2023-06-14T11:35:23;5.95;;;5.35;;
79128;SDS011;68529;43.286;23.360;2023-06-14T11:37:55;5.78;;;5.28;;
79128;SDS011;68529;43.286;23.360;2023-06-14T11:40:26;5.43;;;4.93;;
79128;SDS011;68529;43.286;23.360;2023-06-14T11:42:59;5.75;;;5.10;;
79128;SDS011;68529;43.286;23.360;2023-06-14T11:45:25;5.40;;;4.90;;
79128;SDS011;68529;43.286;23.360;2023-06-14T11:47:51;6.00;;;5.20;;
79128;SDS011;68529;43.286;23.360;2023-06-14T11:50:16;5.15;;;4.60;;
79128;SDS011;68529;43.286;23.360;2023-06-14T11:52:41;5.30;;;4.80;;
79128;SDS011;68529;43.286;23.360;2023-06-14T11:55:07;4.93;;;4.53;;
79128;SDS011;68529;43.286;23.360;2023-06-14T11:57:36;5.07;;;4.70;;
79128;SDS011;68529;43.286;23.360;2023-06-14T12:00:04;5.22;;;4.72;;
79128;SDS011;68529;43.286;23.360;2023-06-14T12:02:37;5.47;;;4.97;;
79128;SDS011;68529;43.286;23.360;2023-06-14T12:05:05;5.88;;;4.72;;
79128;SDS011;68529;43.286;23.360;2023-06-14T12:07:36;5.95;;;5.10;;
79128;SDS011;68529;43.286;23.360;2023-06-14T12:10:04;4.97;;;4.57;;
79128;SDS011;68529;43.286;23.360;2023-06-14T12:12:37;5.20;;;4.80;;
79128;SDS011;68529;43.286;23.360;2023-06-14T12:15:03;4.80;;;4.40;;
79128;SDS011;68529;43.286;23.360;2023-06-14T12:17:34;5.45;;;4.90;;
79128;SDS011;68529;43.286;23.360;2023-06-14T12:20:11;5.50;;;5.00;;
79128;SDS011;68529;43.286;23.360;2023-06-14T12:22:47;5.57;;;5.07;;
79128;SDS011;68529;43.286;23.360;2023-06-14T12:25:23;4.78;;;4.47;;
79128;SDS011;68529;43.286;23.360;2023-06-14T12:28:05;5.20;;;4.70;;
79128;SDS011;68529;43.286;23.360;2023-06-14T12:30:32;5.03;;;4.63;;
79128;SDS011;68529;43.286;23.360;2023-06-14T12:32:58;5.07;;;4.57;;
79128;SDS011;68529;43.286;23.360;2023-06-14T12:35:23;5.57;;;4.85;;
79128;SDS011;68529;43.286;23.360;2023-06-14T12:37:49;5.15;;;4.75;;
79128;SDS011;68529;43.286;23.360;2023-06-14T12:40:14;4.90;;;4.50;;
79128;SDS011;68529;43.286;23.360;2023-06-14T12:42:41;4.82;;;4.43;;
79128;SDS011;68529;43.286;23.360;2023-06-14T12:45:07;5.30;;;4.88;;
79128;SDS011;68529;43.286;23.360;2023-06-14T12:47:33;5.88;;;5.38;;
79128;SDS011;68529;43.286;23.360;2023-06-14T12:49:58;5.43;;;4.93;;
79128;SDS011;68529;43.286;23.360;2023-06-14T12:52:24;5.55;;;5.10;;
79128;SDS011;68529;43.286;23.360;2023-06-14T12:54:49;5.38;;;4.95;;
79128;SDS011;68529;43.286;23.360;2023-06-14T12:57:15;5.30;;;4.80;;
79128;SDS011;68529;43.286;23.360;2023-06-14T12:59:40;5.07;;;4.57;;
79128;SDS011;68529;43.286;23.360;2023-06-14T13:02:16;5.38;;;4.93;;
79128;SDS011;68529;43.286;23.360;2023-06-14T13:04:43;5.30;;;4.63;;
79128;SDS011;68529;43.286;23.360;2023-06-14T13:07:09;7.07;;;5.32;;
79128;SDS011;68529;43.286;23.360;2023-06-14T13:09:35;5.65;;;5.15;;
79128;SDS011;68529;43.286;23.360;2023-06-14T13:12:01;5.25;;;4.80;;
79128;SDS011;68529;43.286;23.360;2023-06-14T13:14:27;6.13;;;5.00;;
79128;SDS011;68529;43.286;23.360;2023-06-14T13:16:52;5.28;;;4.88;;
79128;SDS011;68529;43.286;23.360;2023-06-14T13:19:18;5.78;;;5.25;;
79128;SDS011;68529;43.286;23.360;2023-06-14T13:21:43;6.00;;;5.07;;
79128;SDS011;68529;43.286;23.360;2023-06-14T13:24:09;5.15;;;4.72;;
79128;SDS011;68529;43.286;23.360;2023-06-14T13:26:34;5.25;;;4.80;;
79128;SDS011;68529;43.286;23.360;2023-06-14T13:29:00;5.28;;;4.80;;
79128;SDS011;68529;43.286;23.360;2023-06-14T13:31:25;5.35;;;4.85;;
79128;SDS011;68529;43.286;23.360;2023-06-14T13:33:51;5.22;;;4.75;;
79128;SDS011;68529;43.286;23.360;2023-06-14T13:36:16;5.25;;;4.75;;
79128;SDS011;68529;43.286;23.360;2023-06-14T13:38:42;5.55;;;5.05;;
79128;SDS011;68529;43.286;23.360;2023-06-14T13:41:07;5.40;;;4.85;;
79128;SDS011;68529;43.286;23.360;2023-06-14T13:43:33;4.85;;;4.40;;
79128;SDS011;68529;43.286;23.360;2023-06-14T13:45:58;5.38;;;4.50;;
79128;SDS011;68529;43.286;23.360;2023-06-14T13:48:24;4.75;;;4.35;;
79128;SDS011;68529;43.286;23.360;2023-06-14T13:50:49;4.72;;;4.32;;
79128;SDS011;68529;43.286;23.360;2023-06-14T13:53:15;4.75;;;4.35;;
79128;SDS011;68529;43.286;23.360;2023-06-14T13:55:40;5.40;;;5.00;;
79128;SDS011;68529;43.286;23.360;2023-06-14T13:58:06;6.53;;;6.00;;
79128;SDS011;68529;43.286;23.360;2023-06-14T14:00:31;5.18;;;4.72;;
79128;SDS011;68529;43.286;23.360;2023-06-14T14:02:57;5.60;;;5.10;;
79128;SDS011;68529;43.286;23.360;2023-06-14T14:05:24;4.68;;;4.22;;
79128;SDS011;68529;43.286;23.360;2023-06-14T14:07:54;7.55;;;4.28;;
79128;SDS011;68529;43.286;23.360;2023-06-14T14:10:20;4.75;;;4.35;;
79128;SDS011;68529;43.286;23.360;2023-06-14T14:12:45;5.35;;;4.40;;
79128;SDS011;68529;43.286;23.360;2023-06-14T14:15:11;5.10;;;4.40;;
79128;SDS011;68529;43.286;23.360;2023-06-14T14:17:39;4.68;;;4.38;;
79128;SDS011;68529;43.286;23.360;2023-06-14T14:20:05;4.78;;;4.32;;
79128;SDS011;68529;43.286;23.360;2023-06-14T14:22:31;5.95;;;4.57;;
79128;SDS011;68529;43.286;23.360;2023-06-14T14:24:57;5.07;;;4.68;;
79128;SDS011;68529;43.286;23.360;2023-06-14T14:27:22;4.88;;;4.35;;
79128;SDS011;68529;43.286;23.360;2023-06-14T14:29:48;4.55;;;4.15;;
79128;SDS011;68529;43.286;23.360;2023-06-14T14:32:13;4.57;;;4.18;;
79128;SDS011;68529;43.286;23.360;2023-06-14T14:34:40;4.60;;;4.20;;
79128;SDS011;68529;43.286;23.360;2023-06-14T14:37:05;4.95;;;4.45;;
79128;SDS011;68529;43.286;23.360;2023-06-14T14:39:31;5.10;;;4.60;;
79128;SDS011;68529;43.286;23.360;2023-06-14T14:41:56;7.45;;;4.47;;
79128;SDS011;68529;43.286;23.360;2023-06-14T14:44:22;5.18;;;4.60;;
79128;SDS011;68529;43.286;23.360;2023-06-14T14:46:47;5.32;;;4.82;;